createdAt,value
2023-12-30T00:01:57.043Z,99893.20
2023-12-30T00:04:44.206Z,99896.19
2023-12-30T00:07:31.547Z,99897.50
2023-12-30T00:10:18.467Z,99905.25
2023-12-30T00:13:05.153Z,99912.58
2023-12-30T00:15:52.100Z,99924.71
2023-12-30T00:18:38.627Z,99924.88
2023-12-30T00:21:25.011Z,99927.56
2023-12-30T00:24:11.394Z,99919.19
2023-12-30T00:26:58.092Z,99913.45
2023-12-30T00:29:44.704Z,99899.99
2023-12-30T00:32:31.429Z,99905.31
2023-12-30T00:35:18.094Z,99911.76
2023-12-30T00:38:04.351Z,99910.19
2023-12-30T00:40:50.948Z,99905.94
2023-12-30T00:43:38.628Z,99904.68
2023-12-30T00:46:25.316Z,99901.52
2023-12-30T00:49:12.868Z,99894.67
2023-12-30T00:52:00.246Z,99895.04
2023-12-30T00:54:50.867Z,99894.42
2023-12-30T00:57:38.242Z,99883.35
2023-12-30T01:00:25.152Z,99863.91
2023-12-30T01:03:11.538Z,99865.34
2023-12-30T01:05:58.414Z,99865.69
2023-12-30T01:08:44.861Z,99865.36
2023-12-30T01:11:31.705Z,99861.00
2023-12-30T01:14:18.163Z,99856.19
2023-12-30T01:17:05.043Z,99857.42
2023-12-30T01:19:52.167Z,99837.73
2023-12-30T01:22:38.867Z,99835.48
2023-12-30T01:25:25.429Z,99832.64
2023-12-30T01:28:11.944Z,99839.52
2023-12-30T01:30:58.471Z,99830.98
2023-12-30T01:33:46.726Z,99819.88
2023-12-30T01:36:33.003Z,99816.30
2023-12-30T01:39:19.593Z,99818.63
2023-12-30T01:42:06.351Z,99823.27
2023-12-30T01:44:53.233Z,99812.40
2023-12-30T01:47:40.231Z,99800.93
2023-12-30T01:50:27.677Z,99779.48
2023-12-30T01:53:16.768Z,99765.55
2023-12-30T01:56:04.493Z,99765.48
2023-12-30T01:58:52.834Z,99775.95
2023-12-30T02:01:39.407Z,99773.45
2023-12-30T02:04:26.742Z,99769.51
2023-12-30T02:07:13.334Z,99749.21
2023-12-30T02:10:00.121Z,99753.12
2023-12-30T02:12:46.896Z,99746.95
2023-12-30T02:15:33.474Z,99740.50
2023-12-30T02:18:19.941Z,99736.28
2023-12-30T02:21:08.031Z,99731.77
2023-12-30T02:23:55.670Z,99743.27
2023-12-30T02:26:42.278Z,99742.91
2023-12-30T02:29:29.271Z,99752.92
2023-12-30T02:32:15.891Z,99777.84
2023-12-30T02:35:02.421Z,99807.73
2023-12-30T02:37:49.182Z,99789.21
2023-12-30T02:40:35.861Z,99827.63
2023-12-30T02:43:25.686Z,99849.86
2023-12-30T02:46:12.664Z,99854.83
2023-12-30T02:49:03.776Z,99854.89
2023-12-30T02:51:50.415Z,99850.93
2023-12-30T02:54:37.597Z,99852.63
2023-12-30T02:57:27.107Z,99857.64
2023-12-30T03:00:14.504Z,99864.98
2023-12-30T03:03:01.458Z,99865.58
2023-12-30T03:05:48.461Z,99855.05
2023-12-30T03:08:34.925Z,99846.63
2023-12-30T03:11:22.759Z,99823.09
2023-12-30T03:14:09.571Z,99800.71
2023-12-30T03:16:55.755Z,99791.70
2023-12-30T03:19:42.508Z,99785.62
2023-12-30T03:22:29.356Z,99803.14
2023-12-30T03:25:16.131Z,99816.81
2023-12-30T03:28:02.856Z,99830.83
2023-12-30T03:30:50.254Z,99830.37
2023-12-30T03:33:37.203Z,99821.38
2023-12-30T03:36:24.050Z,99829.27
2023-12-30T03:39:11.483Z,99830.67
2023-12-30T03:41:58.051Z,99839.09
2023-12-30T03:44:44.366Z,99852.17
2023-12-30T03:47:32.004Z,99851.45
2023-12-30T03:50:19.056Z,99849.23
2023-12-30T03:53:06.452Z,99856.54
2023-12-30T03:55:53.352Z,99854.67
2023-12-30T03:58:39.897Z,99847.50
2023-12-30T04:01:27.653Z,99858.66
2023-12-30T04:04:14.041Z,99870.05
2023-12-30T04:07:00.352Z,99866.90
2023-12-30T04:09:47.261Z,99872.30
2023-12-30T04:12:36.474Z,99877.27
2023-12-30T04:15:23.397Z,99873.98
2023-12-30T04:18:09.675Z,99875.02
2023-12-30T04:20:56.773Z,99869.98
2023-12-30T04:23:43.326Z,99870.68
2023-12-30T04:26:30.057Z,99871.23
2023-12-30T04:29:17.067Z,99876.45
2023-12-30T04:32:04.186Z,99873.13
2023-12-30T04:34:50.932Z,99885.73
2023-12-30T04:37:37.876Z,99885.01
2023-12-30T04:40:24.795Z,99895.20
2023-12-30T04:43:11.950Z,99903.75
2023-12-30T04:45:58.397Z,99906.70
2023-12-30T04:48:45.280Z,99903.15
2023-12-30T04:51:32.029Z,99895.97
2023-12-30T04:54:18.279Z,99899.30
2023-12-30T04:57:04.983Z,99892.88
2023-12-30T04:59:51.501Z,99901.86
2023-12-30T05:02:38.154Z,99894.32
2023-12-30T05:05:25.078Z,99897.38
2023-12-30T05:08:11.692Z,99899.61
2023-12-30T05:10:59.693Z,99896.95
2023-12-30T05:13:47.374Z,99889.39
2023-12-30T05:16:34.523Z,99899.00
2023-12-30T05:19:21.787Z,99897.61
2023-12-30T05:22:08.444Z,99900.91
2023-12-30T05:24:55.542Z,99906.06
2023-12-30T05:27:42.199Z,99918.95
2023-12-30T05:30:30.170Z,99920.21
2023-12-30T05:33:17.189Z,99920.36
2023-12-30T05:36:04.477Z,99921.70
2023-12-30T05:38:51.257Z,99921.60
2023-12-30T05:41:40.588Z,99918.89
2023-12-30T05:44:27.011Z,99924.16
2023-12-30T05:47:13.508Z,99926.02
2023-12-30T05:50:00.074Z,99932.54
2023-12-30T05:52:46.924Z,99932.12
2023-12-30T05:55:33.786Z,99932.36
2023-12-30T05:58:20.355Z,99940.89
2023-12-30T06:01:07.103Z,99930.34
2023-12-30T06:03:53.916Z,99930.77
2023-12-30T06:06:41.496Z,99931.58
2023-12-30T06:09:28.303Z,99929.80
2023-12-30T06:12:14.960Z,99929.50
2023-12-30T06:15:01.771Z,99923.15
2023-12-30T06:17:48.398Z,99921.52
2023-12-30T06:20:34.868Z,99922.54
2023-12-30T06:23:21.268Z,99928.09
2023-12-30T06:26:08.252Z,99936.46
2023-12-30T06:28:54.654Z,99930.73
2023-12-30T06:31:43.000Z,99933.90
2023-12-30T06:34:29.927Z,99941.94
2023-12-30T06:37:18.067Z,99946.85
2023-12-30T06:40:05.627Z,99942.05
2023-12-30T06:42:51.839Z,99946.88
2023-12-30T06:45:38.986Z,99947.87
2023-12-30T06:48:25.449Z,99966.88
2023-12-30T06:51:12.652Z,99971.72
2023-12-30T06:53:58.981Z,99977.30
2023-12-30T06:56:45.630Z,99979.97
2023-12-30T06:59:32.260Z,99988.17
2023-12-30T07:02:19.019Z,99990.29
2023-12-30T07:05:06.897Z,99990.20
2023-12-30T07:07:53.260Z,99989.05
2023-12-30T07:10:40.468Z,99997.86
2023-12-30T07:13:27.127Z,99997.72
2023-12-30T07:16:16.700Z,100008.33
2023-12-30T07:19:03.475Z,100019.81
2023-12-30T07:21:50.354Z,100023.91
2023-12-30T07:24:38.513Z,100021.67
2023-12-30T07:27:24.840Z,100020.67
2023-12-30T07:30:12.216Z,100029.41
2023-12-30T07:32:58.993Z,100024.48
2023-12-30T07:35:45.756Z,100029.86
2023-12-30T07:38:32.982Z,100027.46
2023-12-30T07:41:19.402Z,100022.84
2023-12-30T07:44:06.010Z,100028.95
2023-12-30T07:46:52.690Z,100026.46
2023-12-30T07:49:39.255Z,100033.70
2023-12-30T07:52:26.879Z,100037.37
2023-12-30T07:55:13.554Z,100036.37
2023-12-30T07:58:00.532Z,100033.48
2023-12-30T08:00:48.382Z,100025.26
2023-12-30T08:03:35.147Z,100043.08
2023-12-30T08:06:22.122Z,100044.09
2023-12-30T08:09:09.275Z,100051.23
2023-12-30T08:12:02.151Z,100057.02
2023-12-30T08:14:50.133Z,100057.48
2023-12-30T08:17:36.889Z,100058.70
2023-12-30T08:20:23.646Z,100063.56
2023-12-30T08:23:10.379Z,100067.07
2023-12-30T08:25:57.247Z,100076.01
2023-12-30T08:28:43.929Z,100082.32
2023-12-30T08:31:30.284Z,100086.77
2023-12-30T08:34:17.508Z,100086.45
2023-12-30T08:37:09.589Z,100088.70
2023-12-30T08:39:56.562Z,100096.91
2023-12-30T08:42:45.790Z,100099.24
2023-12-30T08:45:33.145Z,100103.36
2023-12-30T08:48:20.134Z,100105.58
2023-12-30T08:51:06.851Z,100104.71
2023-12-30T08:53:54.784Z,100104.32
2023-12-30T08:56:41.617Z,100106.52
2023-12-30T08:59:28.407Z,100105.84
2023-12-30T09:02:15.452Z,100113.45
2023-12-30T09:05:04.101Z,100112.49
2023-12-30T09:07:51.087Z,100123.23
2023-12-30T09:10:39.585Z,100130.87
2023-12-30T09:13:25.894Z,100136.09
2023-12-30T09:16:13.090Z,100129.43
2023-12-30T09:18:59.758Z,100140.86
2023-12-30T09:21:46.503Z,100135.26
2023-12-30T09:24:33.072Z,100135.00
2023-12-30T09:27:19.953Z,100140.29
2023-12-30T09:30:07.527Z,100128.66
2023-12-30T09:32:54.127Z,100144.02
2023-12-30T09:35:41.061Z,100147.70
2023-12-30T09:38:27.658Z,100147.67
2023-12-30T09:41:14.974Z,100150.33
2023-12-30T09:44:04.344Z,100146.55
2023-12-30T09:46:52.128Z,100149.70
2023-12-30T09:49:38.858Z,100154.34
2023-12-30T09:52:26.154Z,100155.42
2023-12-30T09:55:13.194Z,100154.24
2023-12-30T09:58:01.100Z,100159.61
2023-12-30T10:00:48.323Z,100171.73
2023-12-30T10:03:37.200Z,100173.82
2023-12-30T10:06:25.111Z,100174.40
2023-12-30T10:09:13.194Z,100169.85
2023-12-30T10:11:59.885Z,100182.50
2023-12-30T10:14:46.898Z,100184.30
2023-12-30T10:17:33.399Z,100190.55
2023-12-30T10:20:24.700Z,100207.27
2023-12-30T10:23:11.659Z,100218.35
2023-12-30T10:25:58.443Z,100222.88
2023-12-30T10:28:45.974Z,100224.85
2023-12-30T10:31:32.867Z,100227.06
2023-12-30T10:34:22.236Z,100222.56
2023-12-30T10:37:09.649Z,100227.84
2023-12-30T10:39:57.009Z,100234.71
2023-12-30T10:42:43.806Z,100240.36
2023-12-30T10:45:31.267Z,100241.38
2023-12-30T10:48:19.463Z,100242.21
2023-12-30T10:51:07.797Z,100247.48
2023-12-30T10:54:05.700Z,100247.50
2023-12-30T10:57:07.560Z,100245.61
2023-12-30T10:59:58.322Z,100244.73
2023-12-30T11:02:46.774Z,100243.91
2023-12-30T11:05:57.365Z,100248.38
2023-12-30T11:08:45.679Z,100254.61
2023-12-30T11:11:32.717Z,100257.91
2023-12-30T11:14:20.690Z,100264.73
2023-12-30T11:17:07.648Z,100264.19
2023-12-30T11:19:56.444Z,100272.91
2023-12-30T11:22:43.420Z,100276.92
2023-12-30T11:25:36.777Z,100279.52
2023-12-30T11:28:23.920Z,100287.96
2023-12-30T11:31:10.733Z,100286.47
2023-12-30T11:34:00.249Z,100290.42
2023-12-30T11:36:48.418Z,100297.11
2023-12-30T11:42:33.984Z,100301.38
2023-12-30T11:45:28.253Z,100296.55
2023-12-30T11:48:16.438Z,100292.66
2023-12-30T11:51:02.970Z,100295.54
2023-12-30T11:53:49.628Z,100299.77
2023-12-30T11:56:36.381Z,100305.00
2023-12-30T11:59:22.918Z,100299.76
2023-12-30T12:02:12.575Z,100298.84
2023-12-30T12:04:59.333Z,100296.38
2023-12-30T12:07:46.302Z,100297.05
2023-12-30T12:10:34.262Z,100300.11
2023-12-30T12:13:22.482Z,100302.73
2023-12-30T12:16:09.541Z,100308.02
2023-12-30T12:18:56.816Z,100306.59
2023-12-30T12:21:43.483Z,100307.94
2023-12-30T12:24:33.085Z,100312.38
2023-12-30T12:27:23.719Z,100314.48
2023-12-30T12:30:11.829Z,100310.50
2023-12-30T12:32:58.408Z,100309.36
2023-12-30T12:35:45.477Z,100316.36
2023-12-30T12:38:32.180Z,100325.13
2023-12-30T12:41:18.933Z,100324.37
2023-12-30T12:44:06.233Z,100329.52
2023-12-30T12:46:52.905Z,100332.52
2023-12-30T12:49:40.298Z,100327.78
2023-12-30T12:52:26.824Z,100332.52
2023-12-30T12:55:14.133Z,100333.63
2023-12-30T12:58:00.651Z,100333.41
2023-12-30T13:00:47.653Z,100334.91
2023-12-30T13:03:34.732Z,100330.73
2023-12-30T13:06:23.975Z,100321.25
2023-12-30T13:10:07.435Z,100324.42
2023-12-30T13:12:54.674Z,100330.47
2023-12-30T13:15:41.700Z,100333.53
2023-12-30T13:18:29.599Z,100332.48
2023-12-30T13:21:16.702Z,100333.45
2023-12-30T13:24:03.384Z,100334.79
2023-12-30T13:26:50.491Z,100336.66
2023-12-30T13:29:38.146Z,100346.77
2023-12-30T13:32:28.858Z,100349.88
2023-12-30T13:35:15.660Z,100347.55
2023-12-30T13:38:07.825Z,100350.67
2023-12-30T13:40:54.769Z,100357.38
2023-12-30T13:43:45.026Z,100362.73
2023-12-30T13:46:32.996Z,100355.64
2023-12-30T13:49:41.864Z,100365.55
2023-12-30T13:52:29.831Z,100364.23
2023-12-30T13:55:19.747Z,100369.58
2023-12-30T13:58:06.820Z,100375.83
2023-12-30T14:00:53.513Z,100377.33
2023-12-30T14:03:41.413Z,100378.27
2023-12-30T14:06:34.825Z,100375.27
2023-12-30T14:09:33.330Z,100380.05
2023-12-30T14:12:21.052Z,100386.42
2023-12-30T14:15:13.666Z,100387.79
2023-12-30T14:18:00.566Z,100387.88
2023-12-30T14:20:48.385Z,100386.86
2023-12-30T14:23:35.039Z,100399.09
2023-12-30T14:26:22.427Z,100399.38
2023-12-30T14:29:09.690Z,100392.88
2023-12-30T14:31:56.390Z,100399.88
2023-12-30T14:34:43.012Z,100404.08
2023-12-30T14:37:29.944Z,100403.24
2023-12-30T14:40:17.629Z,100406.67
2023-12-30T14:43:04.719Z,100407.52
2023-12-30T14:45:51.547Z,100410.27
2023-12-30T14:48:39.149Z,100413.15
2023-12-30T14:51:26.375Z,100410.85
2023-12-30T14:54:13.319Z,100419.41
2023-12-30T14:57:00.288Z,100420.42
2023-12-30T14:59:46.994Z,100426.15
2023-12-30T15:02:35.096Z,100425.83
2023-12-30T15:05:23.628Z,100436.08
2023-12-30T15:08:10.691Z,100435.38
2023-12-30T15:10:57.478Z,100440.70
2023-12-30T15:13:43.764Z,100435.85
2023-12-30T15:16:30.302Z,100441.99
2023-12-30T15:19:17.043Z,100452.55
2023-12-30T15:22:04.005Z,100453.16
2023-12-30T15:24:51.121Z,100461.36
2023-12-30T15:27:37.872Z,100467.11
2023-12-30T15:30:24.610Z,100464.11
2023-12-30T15:33:12.040Z,100470.52
2023-12-30T15:36:04.227Z,100470.02
2023-12-30T15:38:50.914Z,100475.35
2023-12-30T15:41:37.299Z,100484.83
2023-12-30T15:44:26.157Z,100491.97
2023-12-30T15:47:13.747Z,100489.55
2023-12-30T15:50:00.759Z,100489.16
2023-12-30T15:52:47.761Z,100487.78
2023-12-30T15:55:35.315Z,100482.09
2023-12-30T15:58:22.066Z,100491.30
2023-12-30T16:01:08.710Z,100487.61
2023-12-30T16:03:55.872Z,100481.77
2023-12-30T16:06:43.009Z,100483.29
2023-12-30T16:09:29.525Z,100487.79
2023-12-30T16:12:16.047Z,100489.40
2023-12-30T16:15:02.659Z,100494.14
2023-12-30T16:17:49.827Z,100494.93
2023-12-30T16:20:36.575Z,100498.81
2023-12-30T16:23:23.104Z,100501.30
2023-12-30T16:26:10.223Z,100508.36
2023-12-30T16:28:58.532Z,100509.43
2023-12-30T16:31:45.155Z,100514.77
2023-12-30T16:34:32.299Z,100519.45
2023-12-30T16:37:23.923Z,100529.59
2023-12-30T16:40:11.724Z,100544.46
2023-12-30T16:42:58.122Z,100550.63
2023-12-30T16:45:46.286Z,100557.67
2023-12-30T16:48:34.462Z,100567.16
2023-12-30T16:51:21.772Z,100573.64
2023-12-30T16:54:09.618Z,100569.59
2023-12-30T16:56:57.734Z,100570.21
2023-12-30T16:59:44.357Z,100598.92
2023-12-30T17:02:31.041Z,100629.77
2023-12-30T17:05:17.962Z,100625.46
2023-12-30T17:08:05.352Z,100621.13
2023-12-30T17:10:52.107Z,100628.21
2023-12-30T17:13:43.187Z,100621.09
2023-12-30T17:16:37.359Z,100619.10
2023-12-30T17:19:23.700Z,100623.98
2023-12-30T17:22:10.437Z,100623.55
2023-12-30T17:24:56.749Z,100623.59
2023-12-30T17:27:43.149Z,100623.57
2023-12-30T17:30:29.476Z,100627.31
2023-12-30T17:33:16.367Z,100632.34
2023-12-30T17:36:03.289Z,100632.61
2023-12-30T17:38:50.323Z,100630.87
2023-12-30T17:41:37.002Z,100642.61
2023-12-30T17:44:23.623Z,100649.82
2023-12-30T17:47:11.109Z,100656.97
2023-12-30T17:49:58.097Z,100660.54
2023-12-30T17:52:45.002Z,100665.05
2023-12-30T17:55:33.989Z,100670.83
2023-12-30T17:58:21.983Z,100675.10
2023-12-30T18:01:28.620Z,100680.70
2023-12-30T18:04:15.631Z,100686.95
2023-12-30T18:07:02.660Z,100671.70
2023-12-30T18:09:49.386Z,100676.23
2023-12-30T18:12:37.742Z,100677.92
2023-12-30T18:15:24.377Z,100685.30
2023-12-30T18:18:12.101Z,100693.70
2023-12-30T18:20:58.810Z,100691.70
2023-12-30T18:23:45.545Z,100695.64
2023-12-30T18:26:32.581Z,100694.11
2023-12-30T18:29:19.580Z,100691.70
2023-12-30T18:32:07.962Z,100691.04
2023-12-30T18:34:54.600Z,100693.68
2023-12-30T18:37:42.832Z,100691.99
2023-12-30T18:40:29.701Z,100691.77
2023-12-30T18:43:16.571Z,100694.77
2023-12-30T18:46:03.349Z,100699.44
2023-12-30T18:48:50.133Z,100703.32
2023-12-30T18:51:36.774Z,100703.30
2023-12-30T18:54:22.993Z,100707.59
2023-12-30T18:57:09.516Z,100702.73
2023-12-30T18:59:56.075Z,100706.59
2023-12-30T19:02:42.994Z,100704.88
2023-12-30T19:05:30.417Z,100703.34
2023-12-30T19:08:17.285Z,100706.98
2023-12-30T19:11:04.930Z,100701.89
2023-12-30T19:13:51.846Z,100714.88
2023-12-30T19:16:38.688Z,100722.64
2023-12-30T19:19:25.061Z,100728.42
2023-12-30T19:22:12.804Z,100732.61
2023-12-30T19:24:59.887Z,100728.01
2023-12-30T19:27:47.228Z,100722.56
2023-12-30T19:30:34.058Z,100716.34
2023-12-30T19:33:21.054Z,100719.70
2023-12-30T19:36:09.736Z,100726.84
2023-12-30T19:38:56.268Z,100727.75
2023-12-30T19:41:43.946Z,100735.27
2023-12-30T19:44:30.516Z,100733.59
2023-12-30T19:47:17.055Z,100729.67
2023-12-30T19:50:04.896Z,100731.96
2023-12-30T19:52:52.095Z,100733.55
2023-12-30T19:55:38.999Z,100736.20
2023-12-30T19:58:28.885Z,100742.45
2023-12-30T20:01:20.336Z,100748.05
2023-12-30T20:04:06.910Z,100751.58
2023-12-30T20:06:53.755Z,100751.07
2023-12-30T20:09:42.448Z,100740.91
2023-12-30T20:12:29.953Z,100741.92
2023-12-30T20:15:18.062Z,100746.09
2023-12-30T20:18:05.451Z,100743.64
2023-12-30T20:20:52.205Z,100751.45
2023-12-30T20:23:38.706Z,100758.63
2023-12-30T20:26:25.642Z,100761.22
2023-12-30T20:29:11.845Z,100771.00
2023-12-30T20:31:58.611Z,100779.84
2023-12-30T20:34:46.900Z,100788.77
2023-12-30T20:37:33.588Z,100786.36
2023-12-30T20:40:20.540Z,100789.74
2023-12-30T20:43:07.315Z,100783.45
2023-12-30T20:45:54.038Z,100778.95
2023-12-30T20:48:43.766Z,100783.40
2023-12-30T20:51:30.028Z,100793.30
2023-12-30T20:54:17.531Z,100794.14
2023-12-30T20:57:04.235Z,100800.30
2023-12-30T20:59:50.907Z,100796.24
2023-12-30T21:02:39.266Z,100798.30
2023-12-30T21:05:25.745Z,100801.83
2023-12-30T21:08:12.751Z,100815.65
2023-12-30T21:10:59.408Z,100819.54
2023-12-30T21:13:46.818Z,100820.83
2023-12-30T21:16:33.287Z,100822.14
2023-12-30T21:19:20.136Z,100821.67
2023-12-30T21:22:07.023Z,100821.91
2023-12-30T21:24:53.784Z,100822.23
2023-12-30T21:27:40.432Z,100822.35
2023-12-30T21:30:27.004Z,100827.24
2023-12-30T21:33:13.702Z,100827.07
2023-12-30T21:36:00.324Z,100829.73
2023-12-30T21:38:46.894Z,100832.48
2023-12-30T21:41:33.314Z,100834.64
2023-12-30T21:44:19.950Z,100842.82
2023-12-30T21:47:06.873Z,100841.39
2023-12-30T21:49:53.489Z,100849.62
2023-12-30T21:52:40.498Z,100847.89
2023-12-30T21:55:27.266Z,100844.00
2023-12-30T21:58:14.288Z,100842.66
2023-12-30T22:01:02.472Z,100842.41
2023-12-30T22:03:49.718Z,100843.09
2023-12-30T22:06:36.432Z,100851.59
2023-12-30T22:09:23.006Z,100853.25
2023-12-30T22:12:10.516Z,100848.19
2023-12-30T22:14:56.783Z,100850.28
2023-12-30T22:17:43.617Z,100853.23
2023-12-30T22:20:30.533Z,100852.61
2023-12-30T22:23:19.295Z,100850.15
2023-12-30T22:26:06.449Z,100851.53
2023-12-30T22:28:53.031Z,100850.90
2023-12-30T22:31:43.118Z,100853.25
2023-12-30T22:34:29.609Z,100852.35
2023-12-30T22:37:17.747Z,100859.14
2023-12-30T22:40:05.336Z,100856.64
2023-12-30T22:42:52.009Z,100854.23
2023-12-30T22:45:42.192Z,100858.46
2023-12-30T22:48:28.690Z,100859.32
2023-12-30T22:51:15.617Z,100862.30
2023-12-30T22:54:02.367Z,100860.40
2023-12-30T22:56:49.314Z,100854.45
2023-12-30T22:59:36.694Z,100850.26
2023-12-30T23:02:23.715Z,100850.42
2023-12-30T23:05:11.279Z,100848.80
2023-12-30T23:07:58.711Z,100849.64
2023-12-30T23:10:45.325Z,100847.75
2023-12-30T23:13:32.208Z,100839.94
2023-12-30T23:16:18.694Z,100843.56
2023-12-30T23:19:05.678Z,100849.45
2023-12-30T23:21:53.430Z,100851.83
2023-12-30T23:24:40.386Z,100854.27
2023-12-30T23:27:26.970Z,100859.42
2023-12-30T23:30:15.087Z,100860.75
2023-12-30T23:33:01.826Z,100868.54
2023-12-30T23:35:48.813Z,100873.41
2023-12-30T23:38:35.818Z,100869.95
2023-12-30T23:41:22.178Z,100865.23
2023-12-30T23:44:08.815Z,100866.30
2023-12-30T23:46:55.617Z,100862.33
2023-12-30T23:49:42.085Z,100867.84
2023-12-30T23:52:28.714Z,100865.54
2023-12-30T23:55:15.800Z,100867.52
2023-12-30T23:58:03.232Z,100859.07
